01:58
Airports
History
Links
Donate
Help keep this website running!
PayPal
Bitcoin
This page is community maintained. The information is intended for PC simulator navigation or reference.
Always use approved charts for navigation.
0B1
Bethel RgnlUpdated 21-May-2014
Bethel Rgnl (0B1)
Bethel, Maine, United States (4217)
(U)
Lat/Lng:44° 25' 30.6" N / 70° 48' 35.7" W
44.425167 / -70.809917
Elevation:674'ft / 205mMSL
Declination:W017°
ID / ICAO:0B1
FAA:0B1
Runways:1
Longest:(14-32) 1,158.7m / 3,802ft Asphalt
Distance To
Airport ID:
Airport Radio Frequencies
CTAF: 122.9
Nearby VORs <50NM
Nearby NDBs
Nearby WeatherUpdated 08-17-17 01:52 GMT
Nearby weather at KBML, Berlin Rgnl located 20.8 nautical miles from 0B1
Altimeter: 30.03
Visibility: 10.0 statute miles
Wind: 0 knots (000°)
Temp: 10°c 50°f
Humidity: 87.4%

METAR: KBML 170152Z AUTO 00000KT 10SM CLR 10/08 A3003 RMK AO2 SLP171 T01000078

(Powered by phpweather)
Runway 14 / 32
Dimensions:1158.7 x 22.9m 3802' x 75'ft
Surface:Asphalt
Edge Lights:Low intensity
Runway 14 [A]Runway 32 [B]
Heading:143°MH  126°TH323°MH   306°TH
Lat:
Lng:
44° 25' 41.69"N
70° 48' 56.91"W
44° 25' 19.41"N
70° 48' 14.47"W
User Notes and Comments
Google Map
Nearby Airports
4 Gorham 19.2 NM
NH05 W 263°
(R) Thomas 19.6 NM
ME17 NNE 33°
4 Cummings 20.3 NM
ME44 ESE 117°
(U) Berlin Rgnl 20.8 NM
KBML (WX) WNW 299°
(U) Oxford County Rgnl 24.6 NM
81B SE 138°
4 Maple Ridge 25.2 NM
54B SSE 159°
(R) Hilltop 29.7 NM
ME92 ENE 77°
VFR Chart
Flight Planning at SkyVector.com